sensor_id;sensor_type;location;lat;lon;timestamp;P1;durP1;ratioP1;P2;durP2;ratioP2
27533;SDS011;14973;51.460;7.008;2023-02-28T00:01:00;27.13;;;11.23;;
27533;SDS011;14973;51.460;7.008;2023-02-28T00:03:26;22.70;;;10.73;;
27533;SDS011;14973;51.460;7.008;2023-02-28T00:05:51;19.98;;;11.32;;
27533;SDS011;14973;51.460;7.008;2023-02-28T00:08:17;22.85;;;11.25;;
27533;SDS011;14973;51.460;7.008;2023-02-28T00:10:43;32.47;;;11.43;;
27533;SDS011;14973;51.460;7.008;2023-02-28T00:13:08;22.42;;;11.15;;
27533;SDS011;14973;51.460;7.008;2023-02-28T00:15:34;25.98;;;11.07;;
27533;SDS011;14973;51.460;7.008;2023-02-28T00:18:01;25.75;;;10.15;;
27533;SDS011;14973;51.460;7.008;2023-02-28T00:20:27;23.70;;;10.88;;
27533;SDS011;14973;51.460;7.008;2023-02-28T00:22:53;20.15;;;9.90;;
27533;SDS011;14973;51.460;7.008;2023-02-28T00:25:20;23.88;;;11.10;;
27533;SDS011;14973;51.460;7.008;2023-02-28T00:27:48;20.48;;;10.60;;
27533;SDS011;14973;51.460;7.008;2023-02-28T00:30:16;20.95;;;9.75;;
27533;SDS011;14973;51.460;7.008;2023-02-28T00:32:46;22.45;;;10.38;;
27533;SDS011;14973;51.460;7.008;2023-02-28T00:35:12;26.17;;;10.43;;
27533;SDS011;14973;51.460;7.008;2023-02-28T00:37:38;27.27;;;10.13;;
27533;SDS011;14973;51.460;7.008;2023-02-28T00:40:03;19.15;;;10.45;;
27533;SDS011;14973;51.460;7.008;2023-02-28T00:42:31;21.00;;;9.88;;
27533;SDS011;14973;51.460;7.008;2023-02-28T00:44:57;24.30;;;10.10;;
27533;SDS011;14973;51.460;7.008;2023-02-28T00:47:22;20.25;;;9.35;;
27533;SDS011;14973;51.460;7.008;2023-02-28T00:49:48;20.70;;;9.68;;
27533;SDS011;14973;51.460;7.008;2023-02-28T00:52:13;20.70;;;8.57;;
27533;SDS011;14973;51.460;7.008;2023-02-28T00:54:39;27.27;;;8.45;;
27533;SDS011;14973;51.460;7.008;2023-02-28T00:57:05;18.80;;;8.40;;
27533;SDS011;14973;51.460;7.008;2023-02-28T00:59:30;16.10;;;8.85;;
27533;SDS011;14973;51.460;7.008;2023-02-28T01:01:56;19.70;;;9.00;;
27533;SDS011;14973;51.460;7.008;2023-02-28T01:04:21;23.42;;;9.10;;
27533;SDS011;14973;51.460;7.008;2023-02-28T01:06:47;19.42;;;9.45;;
27533;SDS011;14973;51.460;7.008;2023-02-28T01:09:12;20.42;;;9.05;;
27533;SDS011;14973;51.460;7.008;2023-02-28T01:11:38;18.35;;;8.80;;
27533;SDS011;14973;51.460;7.008;2023-02-28T01:14:06;18.25;;;9.10;;
27533;SDS011;14973;51.460;7.008;2023-02-28T01:16:33;19.63;;;9.30;;
27533;SDS011;14973;51.460;7.008;2023-02-28T01:18:59;25.63;;;9.23;;
27533;SDS011;14973;51.460;7.008;2023-02-28T01:21:24;20.50;;;8.25;;
27533;SDS011;14973;51.460;7.008;2023-02-28T01:23:50;19.77;;;9.30;;
27533;SDS011;14973;51.460;7.008;2023-02-28T01:26:17;20.13;;;8.23;;
27533;SDS011;14973;51.460;7.008;2023-02-28T01:28:47;19.30;;;8.10;;
27533;SDS011;14973;51.460;7.008;2023-02-28T01:31:13;19.88;;;8.05;;
27533;SDS011;14973;51.460;7.008;2023-02-28T01:33:39;19.73;;;8.00;;
27533;SDS011;14973;51.460;7.008;2023-02-28T01:36:06;16.50;;;8.48;;
27533;SDS011;14973;51.460;7.008;2023-02-28T01:38:37;17.05;;;7.10;;
27533;SDS011;14973;51.460;7.008;2023-02-28T01:41:03;16.92;;;7.00;;
27533;SDS011;14973;51.460;7.008;2023-02-28T01:46:15;16.10;;;6.90;;
27533;SDS011;14973;51.460;7.008;2023-02-28T01:48:45;16.67;;;7.28;;
27533;SDS011;14973;51.460;7.008;2023-02-28T01:51:39;17.95;;;6.75;;
27533;SDS011;14973;51.460;7.008;2023-02-28T01:54:03;12.40;;;6.28;;
27533;SDS011;14973;51.460;7.008;2023-02-28T01:56:38;17.10;;;6.57;;
27533;SDS011;14973;51.460;7.008;2023-02-28T01:59:08;16.70;;;6.38;;
27533;SDS011;14973;51.460;7.008;2023-02-28T02:01:35;12.27;;;5.70;;
27533;SDS011;14973;51.460;7.008;2023-02-28T02:04:01;9.52;;;5.45;;
27533;SDS011;14973;51.460;7.008;2023-02-28T02:06:29;15.23;;;6.47;;
27533;SDS011;14973;51.460;7.008;2023-02-28T02:09:04;16.67;;;6.22;;
27533;SDS011;14973;51.460;7.008;2023-02-28T02:11:31;17.60;;;6.55;;
27533;SDS011;14973;51.460;7.008;2023-02-28T02:17:10;17.10;;;6.45;;
27533;SDS011;14973;51.460;7.008;2023-02-28T02:25:21;21.77;;;6.93;;
27533;SDS011;14973;51.460;7.008;2023-02-28T02:37:27;16.83;;;7.30;;
27533;SDS011;14973;51.460;7.008;2023-02-28T02:42:24;21.52;;;7.03;;
27533;SDS011;14973;51.460;7.008;2023-02-28T02:45:06;25.23;;;7.00;;
27533;SDS011;14973;51.460;7.008;2023-02-28T02:47:37;16.30;;;6.22;;
27533;SDS011;14973;51.460;7.008;2023-02-28T02:50:05;18.67;;;7.03;;
27533;SDS011;14973;51.460;7.008;2023-02-28T02:52:38;13.63;;;6.70;;
27533;SDS011;14973;51.460;7.008;2023-02-28T02:55:13;16.08;;;5.72;;
27533;SDS011;14973;51.460;7.008;2023-02-28T02:58:15;13.70;;;6.30;;
27533;SDS011;14973;51.460;7.008;2023-02-28T03:00:37;15.60;;;6.32;;
27533;SDS011;14973;51.460;7.008;2023-02-28T03:03:07;18.63;;;6.00;;
27533;SDS011;14973;51.460;7.008;2023-02-28T03:05:38;16.88;;;5.95;;
27533;SDS011;14973;51.460;7.008;2023-02-28T03:08:12;16.13;;;6.70;;
27533;SDS011;14973;51.460;7.008;2023-02-28T03:10:39;14.43;;;6.95;;
27533;SDS011;14973;51.460;7.008;2023-02-28T03:18:24;13.00;;;5.63;;
27533;SDS011;14973;51.460;7.008;2023-02-28T03:24:07;15.88;;;5.30;;
27533;SDS011;14973;51.460;7.008;2023-02-28T03:26:36;12.20;;;5.88;;
27533;SDS011;14973;51.460;7.008;2023-02-28T03:31:51;11.30;;;5.55;;
27533;SDS011;14973;51.460;7.008;2023-02-28T03:34:38;14.18;;;6.03;;
27533;SDS011;14973;51.460;7.008;2023-02-28T03:37:11;19.27;;;6.55;;
27533;SDS011;14973;51.460;7.008;2023-02-28T03:39:45;17.95;;;6.55;;
27533;SDS011;14973;51.460;7.008;2023-02-28T03:42:29;13.63;;;6.30;;
27533;SDS011;14973;51.460;7.008;2023-02-28T03:45:00;19.45;;;6.38;;
27533;SDS011;14973;51.460;7.008;2023-02-28T03:50:18;16.23;;;6.57;;
27533;SDS011;14973;51.460;7.008;2023-02-28T03:52:53;17.67;;;6.47;;
27533;SDS011;14973;51.460;7.008;2023-02-28T03:55:27;17.73;;;6.55;;
27533;SDS011;14973;51.460;7.008;2023-02-28T03:57:58;21.60;;;6.72;;
27533;SDS011;14973;51.460;7.008;2023-02-28T04:00:34;13.40;;;6.45;;
27533;SDS011;14973;51.460;7.008;2023-02-28T04:03:03;13.32;;;5.85;;
27533;SDS011;14973;51.460;7.008;2023-02-28T04:05:29;12.73;;;6.40;;
27533;SDS011;14973;51.460;7.008;2023-02-28T04:08:03;16.10;;;6.57;;
27533;SDS011;14973;51.460;7.008;2023-02-28T04:10:32;12.82;;;6.45;;
27533;SDS011;14973;51.460;7.008;2023-02-28T04:12:58;20.30;;;6.50;;
27533;SDS011;14973;51.460;7.008;2023-02-28T04:15:23;22.92;;;6.60;;
27533;SDS011;14973;51.460;7.008;2023-02-28T04:17:49;11.32;;;6.07;;
27533;SDS011;14973;51.460;7.008;2023-02-28T04:20:15;13.93;;;6.22;;
27533;SDS011;14973;51.460;7.008;2023-02-28T04:22:41;16.95;;;7.13;;
27533;SDS011;14973;51.460;7.008;2023-02-28T04:25:07;17.50;;;6.65;;
27533;SDS011;14973;51.460;7.008;2023-02-28T04:27:33;15.88;;;6.05;;
27533;SDS011;14973;51.460;7.008;2023-02-28T04:29:59;18.15;;;6.45;;
27533;SDS011;14973;51.460;7.008;2023-02-28T04:32:24;11.35;;;5.75;;
27533;SDS011;14973;51.460;7.008;2023-02-28T04:34:50;12.02;;;5.65;;
27533;SDS011;14973;51.460;7.008;2023-02-28T04:37:16;17.38;;;6.75;;
27533;SDS011;14973;51.460;7.008;2023-02-28T04:39:41;12.23;;;5.40;;
27533;SDS011;14973;51.460;7.008;2023-02-28T04:42:08;14.75;;;5.82;;
27533;SDS011;14973;51.460;7.008;2023-02-28T04:44:34;12.90;;;5.40;;
27533;SDS011;14973;51.460;7.008;2023-02-28T04:46:59;13.35;;;5.70;;
27533;SDS011;14973;51.460;7.008;2023-02-28T04:49:25;12.27;;;5.25;;
27533;SDS011;14973;51.460;7.008;2023-02-28T04:51:51;11.65;;;4.95;;
27533;SDS011;14973;51.460;7.008;2023-02-28T04:54:17;11.63;;;5.45;;
27533;SDS011;14973;51.460;7.008;2023-02-28T04:56:43;17.35;;;5.22;;
27533;SDS011;14973;51.460;7.008;2023-02-28T04:59:09;17.05;;;5.40;;
27533;SDS011;14973;51.460;7.008;2023-02-28T05:01:34;12.13;;;5.43;;
27533;SDS011;14973;51.460;7.008;2023-02-28T05:04:02;14.13;;;4.90;;
27533;SDS011;14973;51.460;7.008;2023-02-28T05:06:29;12.48;;;5.32;;
27533;SDS011;14973;51.460;7.008;2023-02-28T05:08:56;9.43;;;4.95;;
27533;SDS011;14973;51.460;7.008;2023-02-28T05:11:27;15.38;;;5.10;;
27533;SDS011;14973;51.460;7.008;2023-02-28T05:13:58;14.13;;;4.97;;
27533;SDS011;14973;51.460;7.008;2023-02-28T05:16:24;10.65;;;5.10;;
27533;SDS011;14973;51.460;7.008;2023-02-28T05:18:49;13.63;;;5.57;;
27533;SDS011;14973;51.460;7.008;2023-02-28T05:23:50;11.18;;;4.78;;
27533;SDS011;14973;51.460;7.008;2023-02-28T05:26:16;10.68;;;4.68;;
27533;SDS011;14973;51.460;7.008;2023-02-28T05:28:41;10.00;;;5.18;;
27533;SDS011;14973;51.460;7.008;2023-02-28T05:31:08;14.73;;;5.22;;
27533;SDS011;14973;51.460;7.008;2023-02-28T05:33:36;15.30;;;5.40;;
27533;SDS011;14973;51.460;7.008;2023-02-28T05:36:01;13.05;;;5.40;;
27533;SDS011;14973;51.460;7.008;2023-02-28T05:38:27;18.45;;;5.35;;
27533;SDS011;14973;51.460;7.008;2023-02-28T05:40:53;12.73;;;5.47;;
27533;SDS011;14973;51.460;7.008;2023-02-28T05:43:18;13.15;;;5.30;;
27533;SDS011;14973;51.460;7.008;2023-02-28T05:45:44;14.95;;;5.15;;
27533;SDS011;14973;51.460;7.008;2023-02-28T05:48:09;10.95;;;4.97;;
27533;SDS011;14973;51.460;7.008;2023-02-28T05:50:35;10.82;;;5.22;;
27533;SDS011;14973;51.460;7.008;2023-02-28T05:53:01;9.55;;;5.18;;
27533;SDS011;14973;51.460;7.008;2023-02-28T05:55:27;13.95;;;5.93;;
27533;SDS011;14973;51.460;7.008;2023-02-28T05:57:52;15.48;;;5.07;;
27533;SDS011;14973;51.460;7.008;2023-02-28T06:00:18;15.27;;;5.10;;
27533;SDS011;14973;51.460;7.008;2023-02-28T06:02:44;11.30;;;5.47;;
27533;SDS011;14973;51.460;7.008;2023-02-28T06:05:14;14.05;;;5.47;;
27533;SDS011;14973;51.460;7.008;2023-02-28T06:07:41;13.13;;;5.65;;
27533;SDS011;14973;51.460;7.008;2023-02-28T06:10:07;26.52;;;7.43;;
27533;SDS011;14973;51.460;7.008;2023-02-28T06:12:34;14.00;;;4.90;;
27533;SDS011;14973;51.460;7.008;2023-02-28T06:15:00;20.25;;;5.70;;
27533;SDS011;14973;51.460;7.008;2023-02-28T06:17:25;13.93;;;5.07;;
27533;SDS011;14973;51.460;7.008;2023-02-28T06:19:51;17.20;;;5.38;;
27533;SDS011;14973;51.460;7.008;2023-02-28T06:22:16;12.02;;;5.85;;
27533;SDS011;14973;51.460;7.008;2023-02-28T06:24:42;17.77;;;6.20;;
27533;SDS011;14973;51.460;7.008;2023-02-28T06:27:08;14.30;;;5.80;;
27533;SDS011;14973;51.460;7.008;2023-02-28T06:29:34;14.10;;;6.32;;
27533;SDS011;14973;51.460;7.008;2023-02-28T06:32:00;14.80;;;6.10;;
27533;SDS011;14973;51.460;7.008;2023-02-28T06:34:26;10.43;;;5.88;;
27533;SDS011;14973;51.460;7.008;2023-02-28T06:36:52;12.90;;;6.63;;
27533;SDS011;14973;51.460;7.008;2023-02-28T06:39:18;16.83;;;6.32;;
27533;SDS011;14973;51.460;7.008;2023-02-28T06:41:44;10.82;;;6.03;;
27533;SDS011;14973;51.460;7.008;2023-02-28T06:44:20;18.95;;;5.95;;
27533;SDS011;14973;51.460;7.008;2023-02-28T06:46:46;14.18;;;6.07;;
27533;SDS011;14973;51.460;7.008;2023-02-28T06:49:12;19.25;;;5.97;;
27533;SDS011;14973;51.460;7.008;2023-02-28T06:51:38;21.80;;;6.88;;
27533;SDS011;14973;51.460;7.008;2023-02-28T06:54:06;16.45;;;6.32;;
27533;SDS011;14973;51.460;7.008;2023-02-28T06:56:35;14.70;;;6.25;;
27533;SDS011;14973;51.460;7.008;2023-02-28T06:59:01;10.98;;;5.50;;
27533;SDS011;14973;51.460;7.008;2023-02-28T07:01:28;21.48;;;6.25;;
27533;SDS011;14973;51.460;7.008;2023-02-28T07:03:54;12.63;;;5.30;;
27533;SDS011;14973;51.460;7.008;2023-02-28T07:06:20;11.70;;;5.80;;
27533;SDS011;14973;51.460;7.008;2023-02-28T07:08:53;14.52;;;5.65;;
27533;SDS011;14973;51.460;7.008;2023-02-28T07:11:19;19.13;;;6.00;;
27533;SDS011;14973;51.460;7.008;2023-02-28T07:13:50;15.07;;;6.30;;
27533;SDS011;14973;51.460;7.008;2023-02-28T07:16:17;18.83;;;6.80;;
27533;SDS011;14973;51.460;7.008;2023-02-28T07:18:43;18.05;;;7.10;;
27533;SDS011;14973;51.460;7.008;2023-02-28T07:21:09;14.05;;;6.63;;
27533;SDS011;14973;51.460;7.008;2023-02-28T07:23:35;13.65;;;5.95;;
27533;SDS011;14973;51.460;7.008;2023-02-28T07:26:03;20.48;;;6.38;;
27533;SDS011;14973;51.460;7.008;2023-02-28T07:28:29;21.05;;;7.30;;
27533;SDS011;14973;51.460;7.008;2023-02-28T07:30:55;20.98;;;7.32;;
27533;SDS011;14973;51.460;7.008;2023-02-28T07:33:21;19.23;;;7.00;;
27533;SDS011;14973;51.460;7.008;2023-02-28T07:35:46;12.77;;;6.80;;
27533;SDS011;14973;51.460;7.008;2023-02-28T07:38:12;15.25;;;6.18;;
27533;SDS011;14973;51.460;7.008;2023-02-28T07:40:38;23.38;;;6.15;;
27533;SDS011;14973;51.460;7.008;2023-02-28T07:43:04;21.60;;;5.82;;
27533;SDS011;14973;51.460;7.008;2023-02-28T07:45:30;16.98;;;5.82;;
27533;SDS011;14973;51.460;7.008;2023-02-28T07:47:59;15.00;;;6.40;;
27533;SDS011;14973;51.460;7.008;2023-02-28T07:50:25;13.65;;;5.55;;
27533;SDS011;14973;51.460;7.008;2023-02-28T07:52:54;15.02;;;5.72;;
27533;SDS011;14973;51.460;7.008;2023-02-28T07:55:19;17.35;;;5.93;;
27533;SDS011;14973;51.460;7.008;2023-02-28T07:57:45;27.67;;;7.18;;
27533;SDS011;14973;51.460;7.008;2023-02-28T08:00:11;15.98;;;6.40;;
27533;SDS011;14973;51.460;7.008;2023-02-28T08:02:38;14.38;;;6.45;;
27533;SDS011;14973;51.460;7.008;2023-02-28T08:05:04;12.32;;;4.95;;
27533;SDS011;14973;51.460;7.008;2023-02-28T08:07:31;16.42;;;6.03;;
27533;SDS011;14973;51.460;7.008;2023-02-28T08:09:58;14.88;;;5.53;;
27533;SDS011;14973;51.460;7.008;2023-02-28T08:12:24;13.05;;;5.88;;
27533;SDS011;14973;51.460;7.008;2023-02-28T08:14:50;13.25;;;5.70;;
27533;SDS011;14973;51.460;7.008;2023-02-28T08:17:15;10.45;;;4.97;;
27533;SDS011;14973;51.460;7.008;2023-02-28T08:19:41;15.32;;;5.57;;
27533;SDS011;14973;51.460;7.008;2023-02-28T08:22:06;10.95;;;5.80;;
27533;SDS011;14973;51.460;7.008;2023-02-28T08:24:32;16.88;;;6.03;;
27533;SDS011;14973;51.460;7.008;2023-02-28T08:26:58;14.80;;;5.25;;
27533;SDS011;14973;51.460;7.008;2023-02-28T08:29:24;9.95;;;5.20;;
27533;SDS011;14973;51.460;7.008;2023-02-28T08:31:49;22.80;;;5.10;;
27533;SDS011;14973;51.460;7.008;2023-02-28T08:34:15;13.32;;;5.22;;
27533;SDS011;14973;51.460;7.008;2023-02-28T08:36:42;12.95;;;5.03;;
27533;SDS011;14973;51.460;7.008;2023-02-28T08:39:09;7.95;;;3.65;;
27533;SDS011;14973;51.460;7.008;2023-02-28T08:41:35;7.55;;;3.88;;
27533;SDS011;14973;51.460;7.008;2023-02-28T08:44:02;10.73;;;4.13;;
27533;SDS011;14973;51.460;7.008;2023-02-28T08:46:27;7.40;;;3.88;;
27533;SDS011;14973;51.460;7.008;2023-02-28T08:48:53;9.52;;;4.07;;
27533;SDS011;14973;51.460;7.008;2023-02-28T08:51:21;12.68;;;3.60;;
27533;SDS011;14973;51.460;7.008;2023-02-28T08:53:51;12.82;;;4.15;;
27533;SDS011;14973;51.460;7.008;2023-02-28T08:56:18;6.97;;;3.90;;
27533;SDS011;14973;51.460;7.008;2023-02-28T08:58:45;10.93;;;4.10;;
27533;SDS011;14973;51.460;7.008;2023-02-28T09:01:16;8.55;;;3.90;;
27533;SDS011;14973;51.460;7.008;2023-02-28T09:03:46;7.05;;;3.70;;
27533;SDS011;14973;51.460;7.008;2023-02-28T09:06:13;7.47;;;3.90;;
27533;SDS011;14973;51.460;7.008;2023-02-28T09:08:40;8.48;;;3.78;;
27533;SDS011;14973;51.460;7.008;2023-02-28T09:11:06;7.20;;;3.05;;
27533;SDS011;14973;51.460;7.008;2023-02-28T09:13:32;7.75;;;3.60;;
27533;SDS011;14973;51.460;7.008;2023-02-28T09:15:59;11.15;;;3.50;;
27533;SDS011;14973;51.460;7.008;2023-02-28T09:18:26;6.38;;;3.33;;
27533;SDS011;14973;51.460;7.008;2023-02-28T09:20:52;6.68;;;3.38;;
27533;SDS011;14973;51.460;7.008;2023-02-28T09:23:18;8.38;;;3.58;;
27533;SDS011;14973;51.460;7.008;2023-02-28T09:25:45;12.43;;;3.38;;
27533;SDS011;14973;51.460;7.008;2023-02-28T09:28:19;4.88;;;2.92;;
27533;SDS011;14973;51.460;7.008;2023-02-28T09:30:46;6.70;;;3.00;;
27533;SDS011;14973;51.460;7.008;2023-02-28T09:33:13;8.90;;;3.47;;
27533;SDS011;14973;51.460;7.008;2023-02-28T09:35:40;7.88;;;3.50;;
27533;SDS011;14973;51.460;7.008;2023-02-28T09:38:05;6.35;;;3.17;;
27533;SDS011;14973;51.460;7.008;2023-02-28T09:40:34;8.02;;;3.58;;
27533;SDS011;14973;51.460;7.008;2023-02-28T09:43:02;6.15;;;2.78;;
27533;SDS011;14973;51.460;7.008;2023-02-28T09:47:56;5.32;;;2.75;;
27533;SDS011;14973;51.460;7.008;2023-02-28T09:52:58;6.70;;;3.47;;
27533;SDS011;14973;51.460;7.008;2023-02-28T09:55:39;8.15;;;3.45;;
27533;SDS011;14973;51.460;7.008;2023-02-28T09:58:18;10.98;;;3.25;;
27533;SDS011;14973;51.460;7.008;2023-02-28T10:01:03;10.60;;;3.00;;
27533;SDS011;14973;51.460;7.008;2023-02-28T10:03:40;4.47;;;2.50;;
27533;SDS011;14973;51.460;7.008;2023-02-28T10:06:20;9.75;;;2.97;;
27533;SDS011;14973;51.460;7.008;2023-02-28T10:09:00;6.93;;;3.10;;
27533;SDS011;14973;51.460;7.008;2023-02-28T10:11:38;6.38;;;3.13;;
27533;SDS011;14973;51.460;7.008;2023-02-28T10:14:18;5.72;;;3.10;;
27533;SDS011;14973;51.460;7.008;2023-02-28T10:16:56;6.75;;;2.92;;
27533;SDS011;14973;51.460;7.008;2023-02-28T10:19:34;5.13;;;3.00;;
27533;SDS011;14973;51.460;7.008;2023-02-28T10:22:32;9.77;;;3.42;;
27533;SDS011;14973;51.460;7.008;2023-02-28T10:25:26;8.18;;;2.95;;
27533;SDS011;14973;51.460;7.008;2023-02-28T10:27:53;8.48;;;3.05;;
27533;SDS011;14973;51.460;7.008;2023-02-28T10:30:41;4.60;;;3.00;;
27533;SDS011;14973;51.460;7.008;2023-02-28T10:35:54;8.50;;;2.53;;
27533;SDS011;14973;51.460;7.008;2023-02-28T10:38:24;10.77;;;2.85;;
27533;SDS011;14973;51.460;7.008;2023-02-28T10:41:00;9.35;;;2.78;;
27533;SDS011;14973;51.460;7.008;2023-02-28T10:43:48;13.32;;;2.30;;
27533;SDS011;14973;51.460;7.008;2023-02-28T10:46:15;17.65;;;4.30;;
27533;SDS011;14973;51.460;7.008;2023-02-28T10:48:57;8.13;;;2.78;;
27533;SDS011;14973;51.460;7.008;2023-02-28T10:51:36;7.20;;;2.03;;
27533;SDS011;14973;51.460;7.008;2023-02-28T10:54:03;8.48;;;2.50;;
27533;SDS011;14973;51.460;7.008;2023-02-28T10:56:30;7.03;;;2.10;;
27533;SDS011;14973;51.460;7.008;2023-02-28T11:01:35;5.03;;;2.10;;
27533;SDS011;14973;51.460;7.008;2023-02-28T11:04:01;6.80;;;2.38;;
27533;SDS011;14973;51.460;7.008;2023-02-28T11:06:31;7.95;;;2.78;;
27533;SDS011;14973;51.460;7.008;2023-02-28T11:08:59;5.18;;;1.90;;
27533;SDS011;14973;51.460;7.008;2023-02-28T11:11:28;3.97;;;2.47;;
27533;SDS011;14973;51.460;7.008;2023-02-28T11:13:57;7.43;;;2.10;;
27533;SDS011;14973;51.460;7.008;2023-02-28T11:16:34;10.93;;;2.67;;
27533;SDS011;14973;51.460;7.008;2023-02-28T11:19:03;6.03;;;2.33;;
27533;SDS011;14973;51.460;7.008;2023-02-28T11:21:32;4.60;;;2.30;;
27533;SDS011;14973;51.460;7.008;2023-02-28T11:26:53;7.95;;;2.28;;
27533;SDS011;14973;51.460;7.008;2023-02-28T11:29:24;5.68;;;2.10;;
27533;SDS011;14973;51.460;7.008;2023-02-28T11:34:26;4.13;;;2.63;;
27533;SDS011;14973;51.460;7.008;2023-02-28T11:36:57;5.43;;;2.78;;
27533;SDS011;14973;51.460;7.008;2023-02-28T11:39:24;4.32;;;2.45;;
27533;SDS011;14973;51.460;7.008;2023-02-28T11:41:58;6.20;;;2.90;;
27533;SDS011;14973;51.460;7.008;2023-02-28T11:52:41;6.78;;;2.90;;
27533;SDS011;14973;51.460;7.008;2023-02-28T12:01:12;10.38;;;2.85;;
27533;SDS011;14973;51.460;7.008;2023-02-28T12:06:42;6.93;;;3.08;;
27533;SDS011;14973;51.460;7.008;2023-02-28T12:09:34;8.57;;;3.28;;
27533;SDS011;14973;51.460;7.008;2023-02-28T12:23:00;11.45;;;3.15;;
27533;SDS011;14973;51.460;7.008;2023-02-28T12:28:24;3.45;;;2.60;;
27533;SDS011;14973;51.460;7.008;2023-02-28T12:31:04;6.32;;;3.08;;
27533;SDS011;14973;51.460;7.008;2023-02-28T12:33:33;11.55;;;3.33;;
27533;SDS011;14973;51.460;7.008;2023-02-28T12:36:09;8.45;;;3.38;;
27533;SDS011;14973;51.460;7.008;2023-02-28T12:38:43;16.35;;;5.03;;
27533;SDS011;14973;51.460;7.008;2023-02-28T12:41:15;5.53;;;3.20;;
27533;SDS011;14973;51.460;7.008;2023-02-28T12:43:45;7.18;;;3.05;;
27533;SDS011;14973;51.460;7.008;2023-02-28T12:46:29;7.20;;;3.00;;
27533;SDS011;14973;51.460;7.008;2023-02-28T12:49:23;4.38;;;2.80;;
27533;SDS011;14973;51.460;7.008;2023-02-28T12:51:52;6.45;;;3.33;;
27533;SDS011;14973;51.460;7.008;2023-02-28T12:54:21;5.85;;;3.63;;
27533;SDS011;14973;51.460;7.008;2023-02-28T13:10:59;10.23;;;4.15;;
27533;SDS011;14973;51.460;7.008;2023-02-28T13:13:28;5.55;;;3.60;;
27533;SDS011;14973;51.460;7.008;2023-02-28T13:18:44;10.77;;;3.45;;
27533;SDS011;14973;51.460;7.008;2023-02-28T13:29:11;6.53;;;4.35;;
27533;SDS011;14973;51.460;7.008;2023-02-28T13:34:31;8.70;;;4.05;;
27533;SDS011;14973;51.460;7.008;2023-02-28T13:39:57;5.90;;;3.75;;
27533;SDS011;14973;51.460;7.008;2023-02-28T13:42:50;11.48;;;4.15;;
27533;SDS011;14973;51.460;7.008;2023-02-28T13:45:28;9.65;;;4.10;;
27533;SDS011;14973;51.460;7.008;2023-02-28T13:48:01;8.70;;;4.28;;
27533;SDS011;14973;51.460;7.008;2023-02-28T13:50:35;7.68;;;4.28;;
27533;SDS011;14973;51.460;7.008;2023-02-28T13:55:53;4.93;;;3.72;;
27533;SDS011;14973;51.460;7.008;2023-02-28T14:01:31;6.93;;;4.63;;
27533;SDS011;14973;51.460;7.008;2023-02-28T14:07:19;7.00;;;4.18;;
27533;SDS011;14973;51.460;7.008;2023-02-28T14:09:52;10.20;;;4.68;;
27533;SDS011;14973;51.460;7.008;2023-02-28T14:18:17;9.05;;;5.07;;
27533;SDS011;14973;51.460;7.008;2023-02-28T14:20:49;8.23;;;4.93;;
27533;SDS011;14973;51.460;7.008;2023-02-28T14:24:03;5.57;;;4.20;;
27533;SDS011;14973;51.460;7.008;2023-02-28T14:29:23;11.13;;;4.78;;
27533;SDS011;14973;51.460;7.008;2023-02-28T14:37:39;6.70;;;4.43;;
27533;SDS011;14973;51.460;7.008;2023-02-28T14:40:14;9.02;;;4.57;;
27533;SDS011;14973;51.460;7.008;2023-02-28T14:43:17;7.65;;;4.07;;
27533;SDS011;14973;51.460;7.008;2023-02-28T14:45:48;9.73;;;4.60;;
27533;SDS011;14973;51.460;7.008;2023-02-28T14:48:21;6.05;;;4.38;;
27533;SDS011;14973;51.460;7.008;2023-02-28T14:50:48;9.15;;;4.95;;
27533;SDS011;14973;51.460;7.008;2023-02-28T14:53:17;11.80;;;4.72;;
27533;SDS011;14973;51.460;7.008;2023-02-28T14:55:45;7.70;;;4.53;;
27533;SDS011;14973;51.460;7.008;2023-02-28T14:58:19;10.27;;;4.55;;
27533;SDS011;14973;51.460;7.008;2023-02-28T15:01:00;9.55;;;4.78;;
27533;SDS011;14973;51.460;7.008;2023-02-28T15:03:31;10.65;;;6.03;;
27533;SDS011;14973;51.460;7.008;2023-02-28T15:06:00;9.85;;;6.00;;
27533;SDS011;14973;51.460;7.008;2023-02-28T15:08:28;9.38;;;4.63;;
27533;SDS011;14973;51.460;7.008;2023-02-28T15:11:04;7.70;;;5.05;;
27533;SDS011;14973;51.460;7.008;2023-02-28T15:13:47;8.32;;;5.15;;
27533;SDS011;14973;51.460;7.008;2023-02-28T15:18:48;8.52;;;4.60;;
27533;SDS011;14973;51.460;7.008;2023-02-28T15:21:25;8.27;;;5.00;;
27533;SDS011;14973;51.460;7.008;2023-02-28T15:26:36;9.85;;;5.15;;
27533;SDS011;14973;51.460;7.008;2023-02-28T15:29:05;11.60;;;4.97;;
27533;SDS011;14973;51.460;7.008;2023-02-28T15:31:41;9.35;;;4.65;;
27533;SDS011;14973;51.460;7.008;2023-02-28T15:34:18;9.70;;;4.30;;
27533;SDS011;14973;51.460;7.008;2023-02-28T15:36:46;14.63;;;5.28;;
27533;SDS011;14973;51.460;7.008;2023-02-28T15:39:23;9.40;;;4.57;;
27533;SDS011;14973;51.460;7.008;2023-02-28T15:41:51;8.88;;;4.70;;
27533;SDS011;14973;51.460;7.008;2023-02-28T15:44:34;10.00;;;5.03;;
27533;SDS011;14973;51.460;7.008;2023-02-28T15:49:40;7.50;;;4.32;;
27533;SDS011;14973;51.460;7.008;2023-02-28T15:52:14;8.98;;;4.60;;
27533;SDS011;14973;51.460;7.008;2023-02-28T15:54:42;8.50;;;4.68;;
27533;SDS011;14973;51.460;7.008;2023-02-28T15:57:28;9.93;;;4.60;;
27533;SDS011;14973;51.460;7.008;2023-02-28T15:59:56;10.43;;;5.13;;
27533;SDS011;14973;51.460;7.008;2023-02-28T16:02:35;8.55;;;5.13;;
27533;SDS011;14973;51.460;7.008;2023-02-28T16:05:16;8.23;;;5.10;;
27533;SDS011;14973;51.460;7.008;2023-02-28T16:07:46;10.57;;;5.20;;
27533;SDS011;14973;51.460;7.008;2023-02-28T16:10:13;12.40;;;5.50;;
27533;SDS011;14973;51.460;7.008;2023-02-28T16:12:40;9.93;;;5.00;;
27533;SDS011;14973;51.460;7.008;2023-02-28T16:15:17;10.18;;;4.78;;
27533;SDS011;14973;51.460;7.008;2023-02-28T16:17:48;9.40;;;4.93;;
27533;SDS011;14973;51.460;7.008;2023-02-28T16:20:25;8.88;;;4.45;;
27533;SDS011;14973;51.460;7.008;2023-02-28T16:22:52;19.38;;;5.13;;
27533;SDS011;14973;51.460;7.008;2023-02-28T16:25:19;10.82;;;5.03;;
27533;SDS011;14973;51.460;7.008;2023-02-28T16:27:48;14.13;;;5.03;;
27533;SDS011;14973;51.460;7.008;2023-02-28T16:30:25;14.57;;;5.80;;
27533;SDS011;14973;51.460;7.008;2023-02-28T16:32:52;10.18;;;5.28;;
27533;SDS011;14973;51.460;7.008;2023-02-28T16:35:20;8.27;;;4.70;;
27533;SDS011;14973;51.460;7.008;2023-02-28T16:37:46;9.60;;;4.65;;
27533;SDS011;14973;51.460;7.008;2023-02-28T16:40:19;8.60;;;5.30;;
27533;SDS011;14973;51.460;7.008;2023-02-28T16:42:46;10.38;;;4.85;;
27533;SDS011;14973;51.460;7.008;2023-02-28T16:45:17;9.52;;;5.22;;
27533;SDS011;14973;51.460;7.008;2023-02-28T16:47:48;16.00;;;5.72;;
27533;SDS011;14973;51.460;7.008;2023-02-28T16:50:15;11.57;;;4.97;;
27533;SDS011;14973;51.460;7.008;2023-02-28T16:52:47;12.65;;;5.82;;
27533;SDS011;14973;51.460;7.008;2023-02-28T16:55:14;9.65;;;5.18;;
27533;SDS011;14973;51.460;7.008;2023-02-28T16:57:40;9.77;;;5.03;;
27533;SDS011;14973;51.460;7.008;2023-02-28T17:00:07;7.72;;;4.90;;
27533;SDS011;14973;51.460;7.008;2023-02-28T17:02:37;8.30;;;4.97;;
27533;SDS011;14973;51.460;7.008;2023-02-28T17:05:03;11.32;;;4.88;;
27533;SDS011;14973;51.460;7.008;2023-02-28T17:07:29;9.95;;;4.57;;
27533;SDS011;14973;51.460;7.008;2023-02-28T17:09:55;13.77;;;5.47;;
27533;SDS011;14973;51.460;7.008;2023-02-28T17:12:21;10.98;;;4.80;;
27533;SDS011;14973;51.460;7.008;2023-02-28T17:14:47;10.80;;;4.93;;
27533;SDS011;14973;51.460;7.008;2023-02-28T17:17:17;9.20;;;5.15;;
27533;SDS011;14973;51.460;7.008;2023-02-28T17:19:46;15.05;;;7.13;;
27533;SDS011;14973;51.460;7.008;2023-02-28T17:22:12;15.05;;;5.65;;